AAL5730 KFLL-SKCL
Flight info
| Callsign | AAL5730 |
|---|---|
| Flight time | 3h 13m |
| Altitude | 37000 |
| Route | REGAE2 URSUS UP406 UBSUX UQ101 KIKUM ULQ ULQ4E |
| Aircraft | B738/M-VGDW/C |
Departure
| Time | 2026-05-04 15:57 |
|---|---|
| Airport | Fort Lauderdale Hollywood International Airport (KFLL) |
Arrival
| Time | 2026-05-04 19:10 |
|---|---|
| Airport | Alfonso Bonilla Aragon International Airport (SKCL) |
| Time | Latitude | Longitude | Altitude | Speed | Heading |
|---|---|---|---|---|---|
| 2026-05-04 15:40 | 26.07373 | -80.14649 | 15 ft | 0 kts | 207° |
| 2026-05-04 15:46 | 26.07374 | -80.14648 | 15 ft | 2 kts | 207° |
| 2026-05-04 15:46 | 26.07398 | -80.14635 | 15 ft | 4 kts | 207° |
| 2026-05-04 15:47 | 26.07416 | -80.14624 | 15 ft | 3 kts | 207° |
| 2026-05-04 15:47 | 26.07439 | -80.14610 | 15 ft | 4 kts | 223° |
| 2026-05-04 15:47 | 26.07448 | -80.14591 | 19 ft | 3 kts | 270° |
| 2026-05-04 15:47 | 26.07448 | -80.14570 | 19 ft | 0 kts | 270° |
| 2026-05-04 15:50 | 26.07453 | -80.14592 | 16 ft | 7 kts | 291° |
| 2026-05-04 15:50 | 26.07479 | -80.14662 | 15 ft | 11 kts | 292° |
| 2026-05-04 15:50 | 26.07488 | -80.14741 | 15 ft | 10 kts | 265° |
| 2026-05-04 15:51 | 26.07488 | -80.14819 | 15 ft | 10 kts | 269° |
| 2026-05-04 15:51 | 26.07480 | -80.14894 | 15 ft | 10 kts | 249° |
| 2026-05-04 15:51 | 26.07438 | -80.14951 | 15 ft | 9 kts | 225° |
| 2026-05-04 15:51 | 26.07393 | -80.15002 | 15 ft | 9 kts | 225° |
| 2026-05-04 15:52 | 26.07349 | -80.15052 | 15 ft | 9 kts | 225° |
| 2026-05-04 15:52 | 26.07306 | -80.15101 | 15 ft | 9 kts | 225° |
| 2026-05-04 15:52 | 26.07253 | -80.15127 | 15 ft | 8 kts | 184° |
| 2026-05-04 15:52 | 26.07195 | -80.15128 | 15 ft | 8 kts | 181° |
| 2026-05-04 15:53 | 26.07139 | -80.15128 | 15 ft | 8 kts | 180° |
| 2026-05-04 15:53 | 26.07085 | -80.15129 | 15 ft | 8 kts | 180° |
| 2026-05-04 15:53 | 26.07004 | -80.15130 | 15 ft | 15 kts | 181° |
| 2026-05-04 15:53 | 26.06879 | -80.15130 | 15 ft | 19 kts | 181° |
| 2026-05-04 15:54 | 26.06759 | -80.15131 | 15 ft | 11 kts | 180° |
| 2026-05-04 15:54 | 26.06698 | -80.15169 | 22 ft | 11 kts | 257° |
| 2026-05-04 15:54 | 26.06695 | -80.15255 | 18 ft | 12 kts | 270° |
| 2026-05-04 15:54 | 26.06696 | -80.15355 | 15 ft | 13 kts | 270° |
| 2026-05-04 15:55 | 26.06697 | -80.15465 | 15 ft | 16 kts | 270° |
| 2026-05-04 15:55 | 26.06698 | -80.15598 | 15 ft | 17 kts | 270° |
| 2026-05-04 15:55 | 26.06699 | -80.15731 | 15 ft | 16 kts | 270° |
| 2026-05-04 15:55 | 26.06682 | -80.15814 | 17 ft | 11 kts | 219° |
| 2026-05-04 15:56 | 26.06610 | -80.15821 | 16 ft | 10 kts | 165° |
| 2026-05-04 15:56 | 26.06589 | -80.15749 | 18 ft | 13 kts | 91° |
| 2026-05-04 15:56 | 26.06587 | -80.15447 | 21 ft | 76 kts | 90° |
| 2026-05-04 15:56 | 26.06582 | -80.14604 | 36 ft | 140 kts | 90° |
| 2026-05-04 15:57 | 26.06577 | -80.13410 | 485 ft | 159 kts | 85° |
| 2026-05-04 15:57 | 26.06651 | -80.12140 | 1143 ft | 170 kts | 73° |
| 2026-05-04 15:57 | 26.06985 | -80.10857 | 1765 ft | 182 kts | 68° |
| 2026-05-04 15:57 | 26.07359 | -80.09387 | 2089 ft | 211 kts | 73° |
| 2026-05-04 15:58 | 26.07605 | -80.07690 | 2391 ft | 232 kts | 81° |
| 2026-05-04 15:58 | 26.07722 | -80.05832 | 2855 ft | 247 kts | 84° |
| 2026-05-04 15:58 | 26.07783 | -80.03851 | 3082 ft | 275 kts | 85° |
| 2026-05-04 15:58 | 26.07834 | -80.01667 | 3755 ft | 281 kts | 87° |
| 2026-05-04 15:59 | 26.07849 | -79.99471 | 4585 ft | 285 kts | 89° |
| 2026-05-04 15:59 | 26.07813 | -79.97271 | 5516 ft | 284 kts | 90° |
| 2026-05-04 15:59 | 26.07768 | -79.95062 | 6315 ft | 287 kts | 90° |
| 2026-05-04 15:59 | 26.07738 | -79.92836 | 7045 ft | 291 kts | 90° |
| 2026-05-04 16:00 | 26.07724 | -79.90588 | 7680 ft | 298 kts | 90° |
| 2026-05-04 16:00 | 26.07534 | -79.88264 | 8354 ft | 303 kts | 110° |
| 2026-05-04 16:00 | 26.06421 | -79.86313 | 9080 ft | 301 kts | 141° |
| 2026-05-04 16:00 | 26.04624 | -79.85169 | 9784 ft | 298 kts | 167° |
| 2026-05-04 16:01 | 26.02585 | -79.84823 | 10346 ft | 300 kts | 183° |
| 2026-05-04 16:01 | 26.00446 | -79.84794 | 10517 ft | 322 kts | 185° |
| 2026-05-04 16:01 | 25.98114 | -79.84817 | 10685 ft | 344 kts | 185° |
| 2026-05-04 16:01 | 25.95664 | -79.84847 | 11054 ft | 357 kts | 185° |
| 2026-05-04 16:02 | 25.93188 | -79.84867 | 11650 ft | 361 kts | 185° |
| 2026-05-04 16:02 | 25.90671 | -79.84875 | 12348 ft | 363 kts | 186° |
| 2026-05-04 16:02 | 25.85586 | -79.84875 | 13685 ft | 368 kts | 186° |
| 2026-05-04 16:03 | 25.83013 | -79.84871 | 14250 ft | 371 kts | 186° |
| 2026-05-04 16:03 | 25.81295 | -79.84868 | 14608 ft | 373 kts | 186° |
| 2026-05-04 16:03 | 25.78683 | -79.84863 | 15140 ft | 376 kts | 186° |
| 2026-05-04 16:03 | 25.76037 | -79.84857 | 15682 ft | 379 kts | 186° |
| 2026-05-04 16:04 | 25.73421 | -79.84851 | 16199 ft | 382 kts | 186° |
| 2026-05-04 16:04 | 25.68059 | -79.84839 | 17244 ft | 387 kts | 186° |
| 2026-05-04 16:04 | 25.65346 | -79.84832 | 17737 ft | 391 kts | 186° |
| 2026-05-04 16:05 | 25.62612 | -79.84826 | 18235 ft | 394 kts | 186° |
| 2026-05-04 16:05 | 25.59850 | -79.84819 | 18663 ft | 397 kts | 186° |
| 2026-05-04 16:05 | 25.54303 | -79.84807 | 19449 ft | 403 kts | 186° |
| 2026-05-04 16:06 | 25.51485 | -79.84800 | 19857 ft | 406 kts | 186° |
| 2026-05-04 16:06 | 25.42902 | -79.84779 | 21029 ft | 415 kts | 185° |
| 2026-05-04 16:07 | 25.40031 | -79.84773 | 21396 ft | 418 kts | 185° |
| 2026-05-04 16:07 | 25.31228 | -79.83521 | 22499 ft | 437 kts | 169° |
| 2026-05-04 16:08 | 25.28295 | -79.82555 | 22841 ft | 440 kts | 168° |
| 2026-05-04 16:08 | 25.19434 | -79.79615 | 23814 ft | 448 kts | 169° |
| 2026-05-04 16:09 | 25.13403 | -79.77674 | 24402 ft | 452 kts | 169° |
| 2026-05-04 16:09 | 25.07365 | -79.75749 | 24948 ft | 456 kts | 169° |
| 2026-05-04 16:10 | 25.01228 | -79.73795 | 25497 ft | 459 kts | 169° |
| 2026-05-04 16:11 | 24.91976 | -79.70848 | 26294 ft | 465 kts | 169° |
| 2026-05-04 16:11 | 24.88897 | -79.69661 | 26556 ft | 472 kts | 162° |
| 2026-05-04 16:12 | 24.80356 | -79.63945 | 27304 ft | 485 kts | 151° |
| 2026-05-04 16:12 | 24.71824 | -79.57806 | 28023 ft | 490 kts | 152° |
| 2026-05-04 16:13 | 24.66096 | -79.53767 | 28484 ft | 492 kts | 153° |
| 2026-05-04 16:13 | 24.60285 | -79.49692 | 28906 ft | 496 kts | 153° |
| 2026-05-04 16:14 | 24.54445 | -79.45600 | 29332 ft | 499 kts | 153° |
| 2026-05-04 16:14 | 24.48609 | -79.41511 | 29790 ft | 501 kts | 153° |
| 2026-05-04 16:15 | 24.39810 | -79.35350 | 30720 ft | 496 kts | 153° |
| 2026-05-04 16:16 | 24.33999 | -79.31290 | 31274 ft | 494 kts | 153° |
| 2026-05-04 16:16 | 24.25409 | -79.25226 | 32167 ft | 490 kts | 152° |
| 2026-05-04 16:17 | 24.19698 | -79.21108 | 32716 ft | 488 kts | 152° |
| 2026-05-04 16:18 | 24.11242 | -79.15038 | 33529 ft | 485 kts | 153° |
| 2026-05-04 16:18 | 24.08405 | -79.13009 | 33788 ft | 484 kts | 153° |
| 2026-05-04 16:19 | 23.99827 | -79.07389 | 34411 ft | 473 kts | 165° |
| 2026-05-04 16:19 | 23.93582 | -79.05591 | 34741 ft | 460 kts | 177° |
| 2026-05-04 16:20 | 23.84113 | -79.03825 | 35312 ft | 459 kts | 178° |
| 2026-05-04 16:20 | 23.77840 | -79.02614 | 35670 ft | 459 kts | 178° |
| 2026-05-04 16:21 | 23.68413 | -79.00751 | 36184 ft | 459 kts | 178° |
| 2026-05-04 16:22 | 23.62108 | -78.99504 | 36514 ft | 458 kts | 178° |
| 2026-05-04 16:22 | 23.52724 | -78.97652 | 36971 ft | 458 kts | 178° |
| 2026-05-04 16:23 | 23.43291 | -78.95797 | 37043 ft | 461 kts | 178° |
| 2026-05-04 16:25 | 23.24435 | -78.92088 | 37052 ft | 457 kts | 178° |
| 2026-05-04 16:26 | 23.02584 | -78.87800 | 37050 ft | 458 kts | 178° |
| 2026-05-04 16:28 | 22.86874 | -78.84722 | 37046 ft | 460 kts | 178° |
| 2026-05-04 16:29 | 22.64733 | -78.80394 | 37049 ft | 463 kts | 178° |
| 2026-05-04 16:31 | 22.48876 | -78.77307 | 37043 ft | 463 kts | 178° |
| 2026-05-04 16:32 | 22.29888 | -78.73620 | 37042 ft | 461 kts | 177° |
| 2026-05-04 16:33 | 22.17259 | -78.71174 | 37036 ft | 460 kts | 177° |
| 2026-05-04 16:34 | 22.07858 | -78.69356 | 37036 ft | 459 kts | 177° |
| 2026-05-04 16:35 | 21.88971 | -78.65711 | 37044 ft | 459 kts | 177° |
| 2026-05-04 16:36 | 21.79557 | -78.63898 | 37037 ft | 460 kts | 176° |
| 2026-05-04 16:37 | 21.70104 | -78.62079 | 37035 ft | 462 kts | 176° |
| 2026-05-04 16:38 | 21.57399 | -78.59639 | 37043 ft | 464 kts | 176° |
| 2026-05-04 16:39 | 21.41520 | -78.56594 | 37036 ft | 465 kts | 176° |
| 2026-05-04 16:40 | 21.28788 | -78.54158 | 37039 ft | 465 kts | 176° |
| 2026-05-04 16:41 | 21.12868 | -78.51118 | 37039 ft | 464 kts | 175° |
| 2026-05-04 16:43 | 20.96990 | -78.48093 | 37035 ft | 464 kts | 175° |
| 2026-05-04 16:43 | 20.87445 | -78.46277 | 37036 ft | 463 kts | 175° |
| 2026-05-04 16:45 | 20.68438 | -78.42669 | 37039 ft | 463 kts | 174° |
| 2026-05-04 16:46 | 20.52616 | -78.39673 | 37038 ft | 463 kts | 174° |
| 2026-05-04 16:47 | 20.39886 | -78.37267 | 37044 ft | 464 kts | 174° |
| 2026-05-04 16:48 | 20.27190 | -78.34871 | 37048 ft | 464 kts | 174° |
| 2026-05-04 16:49 | 20.15555 | -78.32678 | 37042 ft | 464 kts | 174° |
| 2026-05-04 16:50 | 20.02799 | -78.30278 | 37045 ft | 464 kts | 174° |
| 2026-05-04 16:51 | 19.93286 | -78.28402 | 37035 ft | 465 kts | 172° |
| 2026-05-04 16:52 | 19.80631 | -78.25417 | 37041 ft | 465 kts | 172° |
| 2026-05-04 16:53 | 19.71182 | -78.23222 | 37042 ft | 464 kts | 172° |
| 2026-05-04 16:54 | 19.58593 | -78.20335 | 37041 ft | 463 kts | 172° |
| 2026-05-04 16:55 | 19.39712 | -78.16011 | 37034 ft | 462 kts | 172° |
| 2026-05-04 16:56 | 19.24007 | -78.12422 | 37036 ft | 462 kts | 172° |
| 2026-05-04 16:57 | 19.14568 | -78.10269 | 37036 ft | 463 kts | 172° |
| 2026-05-04 16:58 | 19.01986 | -78.07401 | 37033 ft | 463 kts | 172° |
| 2026-05-04 17:00 | 18.83053 | -78.03096 | 37030 ft | 465 kts | 172° |
| 2026-05-04 17:01 | 18.67238 | -77.99506 | 37025 ft | 466 kts | 172° |
| 2026-05-04 17:02 | 18.54521 | -77.96625 | 37021 ft | 467 kts | 172° |
| 2026-05-04 17:03 | 18.45012 | -77.94473 | 37021 ft | 467 kts | 172° |
| 2026-05-04 17:03 | 18.35475 | -77.92318 | 37030 ft | 468 kts | 172° |
| 2026-05-04 17:04 | 18.22762 | -77.89447 | 37019 ft | 464 kts | 172° |
| 2026-05-04 17:05 | 18.10233 | -77.86623 | 37024 ft | 459 kts | 172° |
| 2026-05-04 17:06 | 18.00868 | -77.84516 | 37018 ft | 459 kts | 173° |
| 2026-05-04 17:07 | 17.92538 | -77.82643 | 37022 ft | 459 kts | 173° |
| 2026-05-04 17:07 | 17.85265 | -77.81010 | 37019 ft | 459 kts | 172° |
| 2026-05-04 17:08 | 17.75918 | -77.78912 | 37023 ft | 459 kts | 172° |
| 2026-05-04 17:09 | 17.69652 | -77.77507 | 37022 ft | 460 kts | 172° |
| 2026-05-04 17:09 | 17.63382 | -77.76102 | 37020 ft | 460 kts | 172° |
| 2026-05-04 17:10 | 17.47715 | -77.72596 | 37019 ft | 462 kts | 172° |
| 2026-05-04 17:11 | 17.41421 | -77.71189 | 37020 ft | 462 kts | 172° |
| 2026-05-04 17:12 | 17.31998 | -77.69084 | 37017 ft | 462 kts | 172° |
| 2026-05-04 17:13 | 17.16293 | -77.65581 | 37017 ft | 462 kts | 172° |
| 2026-05-04 17:14 | 17.03714 | -77.62781 | 37015 ft | 461 kts | 172° |
| 2026-05-04 17:15 | 16.94331 | -77.60694 | 37012 ft | 461 kts | 172° |
| 2026-05-04 17:16 | 16.81812 | -77.57913 | 37012 ft | 460 kts | 172° |
| 2026-05-04 17:17 | 16.69286 | -77.55134 | 37008 ft | 459 kts | 171° |
| 2026-05-04 17:18 | 16.56806 | -77.52369 | 37005 ft | 459 kts | 171° |
| 2026-05-04 17:19 | 16.44297 | -77.49602 | 37003 ft | 458 kts | 171° |
| 2026-05-04 17:20 | 16.31828 | -77.46847 | 37007 ft | 458 kts | 171° |
| 2026-05-04 17:20 | 16.22495 | -77.44787 | 37000 ft | 458 kts | 171° |
| 2026-05-04 17:21 | 16.10030 | -77.42038 | 37003 ft | 458 kts | 171° |
| 2026-05-04 17:22 | 16.03836 | -77.40674 | 37000 ft | 458 kts | 171° |
| 2026-05-04 17:23 | 15.91348 | -77.38014 | 36997 ft | 457 kts | 172° |
| 2026-05-04 17:24 | 15.82015 | -77.36183 | 36997 ft | 456 kts | 172° |
| 2026-05-04 17:25 | 15.69522 | -77.33703 | 36997 ft | 456 kts | 172° |
| 2026-05-04 17:26 | 15.57075 | -77.31224 | 36990 ft | 456 kts | 172° |
| 2026-05-04 17:27 | 15.41511 | -77.28130 | 36990 ft | 456 kts | 172° |
| 2026-05-04 17:28 | 15.29060 | -77.25659 | 36990 ft | 456 kts | 172° |
| 2026-05-04 17:29 | 15.10381 | -77.21956 | 36986 ft | 456 kts | 172° |
| 2026-05-04 17:31 | 14.94820 | -77.18865 | 36984 ft | 456 kts | 171° |
| 2026-05-04 17:32 | 14.79258 | -77.15724 | 36983 ft | 455 kts | 171° |
| 2026-05-04 17:33 | 14.66838 | -77.13225 | 36979 ft | 455 kts | 171° |
| 2026-05-04 17:34 | 14.54445 | -77.10735 | 36976 ft | 454 kts | 171° |
| 2026-05-04 17:35 | 14.38967 | -77.07630 | 36973 ft | 453 kts | 171° |
| 2026-05-04 17:36 | 14.32765 | -77.06387 | 36974 ft | 453 kts | 171° |
| 2026-05-04 17:36 | 14.26573 | -77.05146 | 36970 ft | 453 kts | 171° |
| 2026-05-04 17:37 | 14.20385 | -77.03907 | 36972 ft | 453 kts | 171° |
| 2026-05-04 17:37 | 14.15240 | -77.02877 | 36972 ft | 452 kts | 171° |
| 2026-05-04 17:38 | 14.08032 | -77.01435 | 36972 ft | 452 kts | 171° |
| 2026-05-04 17:38 | 14.02887 | -77.00407 | 36967 ft | 452 kts | 171° |
| 2026-05-04 17:39 | 13.93641 | -76.98560 | 36963 ft | 452 kts | 171° |
| 2026-05-04 17:39 | 13.87441 | -76.97322 | 36961 ft | 452 kts | 171° |
| 2026-05-04 17:40 | 13.81297 | -76.96096 | 36962 ft | 452 kts | 171° |
| 2026-05-04 17:40 | 13.75102 | -76.94860 | 36958 ft | 452 kts | 171° |
| 2026-05-04 17:41 | 13.68911 | -76.93627 | 36957 ft | 452 kts | 171° |
| 2026-05-04 17:41 | 13.62775 | -76.92404 | 36954 ft | 452 kts | 171° |
| 2026-05-04 17:42 | 13.56598 | -76.91174 | 36954 ft | 452 kts | 171° |
| 2026-05-04 17:42 | 13.50414 | -76.89942 | 36956 ft | 451 kts | 171° |
| 2026-05-04 17:43 | 13.44283 | -76.88724 | 36955 ft | 451 kts | 171° |
| 2026-05-04 17:43 | 13.38114 | -76.87499 | 36955 ft | 451 kts | 171° |
| 2026-05-04 17:44 | 13.31936 | -76.86271 | 36952 ft | 451 kts | 171° |
| 2026-05-04 17:44 | 13.25765 | -76.85044 | 36954 ft | 451 kts | 171° |
| 2026-05-04 17:45 | 13.19634 | -76.83828 | 36950 ft | 451 kts | 171° |
| 2026-05-04 17:45 | 13.13473 | -76.82605 | 36946 ft | 450 kts | 171° |
| 2026-05-04 17:46 | 13.07347 | -76.81390 | 36948 ft | 450 kts | 170° |
| 2026-05-04 17:46 | 13.01183 | -76.80167 | 36950 ft | 450 kts | 171° |
| 2026-05-04 17:47 | 12.95018 | -76.78947 | 36943 ft | 450 kts | 171° |
| 2026-05-04 17:47 | 12.88906 | -76.77737 | 36945 ft | 449 kts | 170° |
| 2026-05-04 17:48 | 12.82762 | -76.76521 | 36944 ft | 449 kts | 170° |
| 2026-05-04 17:48 | 12.76614 | -76.75304 | 36943 ft | 449 kts | 170° |
| 2026-05-04 17:49 | 12.70495 | -76.74095 | 36941 ft | 450 kts | 170° |
| 2026-05-04 17:49 | 12.64294 | -76.73310 | 36949 ft | 448 kts | 177° |
| 2026-05-04 17:50 | 12.58050 | -76.72971 | 36939 ft | 449 kts | 178° |
| 2026-05-04 17:50 | 12.51791 | -76.72649 | 36935 ft | 449 kts | 178° |
| 2026-05-04 17:51 | 12.45580 | -76.72295 | 36933 ft | 450 kts | 178° |
| 2026-05-04 17:51 | 12.39304 | -76.71916 | 36933 ft | 451 kts | 177° |
| 2026-05-04 17:52 | 12.33055 | -76.71532 | 36931 ft | 452 kts | 177° |
| 2026-05-04 17:52 | 12.26763 | -76.71146 | 36933 ft | 452 kts | 177° |
| 2026-05-04 17:53 | 12.20470 | -76.70761 | 36930 ft | 453 kts | 178° |
| 2026-05-04 17:53 | 12.14192 | -76.70378 | 36927 ft | 454 kts | 177° |
| 2026-05-04 17:54 | 12.07868 | -76.69992 | 36927 ft | 454 kts | 177° |
| 2026-05-04 17:54 | 12.01583 | -76.69608 | 36926 ft | 454 kts | 177° |
| 2026-05-04 17:55 | 11.95270 | -76.69223 | 36924 ft | 454 kts | 177° |
| 2026-05-04 17:55 | 11.88940 | -76.68837 | 36922 ft | 454 kts | 177° |
| 2026-05-04 17:56 | 11.82643 | -76.68453 | 36923 ft | 454 kts | 177° |
| 2026-05-04 17:56 | 11.76323 | -76.68068 | 36917 ft | 454 kts | 177° |
| 2026-05-04 17:57 | 11.70040 | -76.67686 | 36919 ft | 454 kts | 177° |
| 2026-05-04 17:57 | 11.63710 | -76.67300 | 36917 ft | 454 kts | 178° |
| 2026-05-04 17:58 | 11.57400 | -76.66917 | 36914 ft | 454 kts | 178° |
| 2026-05-04 17:58 | 11.51112 | -76.66535 | 36914 ft | 454 kts | 177° |
| 2026-05-04 17:59 | 11.44819 | -76.66152 | 36913 ft | 454 kts | 177° |
| 2026-05-04 18:00 | 11.35352 | -76.65577 | 36910 ft | 454 kts | 178° |
| 2026-05-04 18:00 | 11.29046 | -76.65194 | 36910 ft | 454 kts | 178° |
| 2026-05-04 18:01 | 11.22762 | -76.64813 | 36909 ft | 454 kts | 178° |
| 2026-05-04 18:01 | 11.16457 | -76.64431 | 36908 ft | 454 kts | 178° |
| 2026-05-04 18:02 | 11.06965 | -76.63855 | 36904 ft | 455 kts | 178° |
| 2026-05-04 18:02 | 11.00667 | -76.63474 | 36902 ft | 455 kts | 178° |
| 2026-05-04 18:03 | 10.94335 | -76.63090 | 36904 ft | 455 kts | 178° |
| 2026-05-04 18:03 | 10.88034 | -76.62709 | 36902 ft | 456 kts | 178° |
| 2026-05-04 18:04 | 10.81702 | -76.62326 | 36900 ft | 456 kts | 178° |
| 2026-05-04 18:05 | 10.72186 | -76.61750 | 36908 ft | 456 kts | 178° |
| 2026-05-04 18:05 | 10.65856 | -76.61368 | 36897 ft | 456 kts | 178° |
| 2026-05-04 18:06 | 10.56369 | -76.60794 | 36897 ft | 456 kts | 178° |
| 2026-05-04 18:06 | 10.50019 | -76.60410 | 36895 ft | 457 kts | 178° |
| 2026-05-04 18:07 | 10.43667 | -76.60028 | 36893 ft | 457 kts | 178° |
| 2026-05-04 18:07 | 10.37342 | -76.59646 | 36896 ft | 457 kts | 178° |
| 2026-05-04 18:08 | 10.30959 | -76.59261 | 36896 ft | 458 kts | 178° |
| 2026-05-04 18:08 | 10.24576 | -76.58877 | 36895 ft | 459 kts | 177° |
| 2026-05-04 18:09 | 10.11795 | -76.58107 | 36903 ft | 462 kts | 177° |
| 2026-05-04 18:10 | 10.05398 | -76.57722 | 36895 ft | 462 kts | 177° |
| 2026-05-04 18:10 | 9.98981 | -76.57335 | 36900 ft | 463 kts | 177° |
| 2026-05-04 18:11 | 9.92526 | -76.56947 | 36901 ft | 462 kts | 177° |
| 2026-05-04 18:11 | 9.86148 | -76.56563 | 36898 ft | 461 kts | 177° |
| 2026-05-04 18:12 | 9.79727 | -76.56177 | 36893 ft | 460 kts | 177° |
| 2026-05-04 18:12 | 9.73359 | -76.55794 | 36893 ft | 458 kts | 177° |
| 2026-05-04 18:13 | 9.66994 | -76.55412 | 36892 ft | 457 kts | 177° |
| 2026-05-04 18:14 | 9.57535 | -76.54844 | 36891 ft | 455 kts | 177° |
| 2026-05-04 18:14 | 9.51198 | -76.54464 | 36888 ft | 454 kts | 177° |
| 2026-05-04 18:15 | 9.38601 | -76.53709 | 36894 ft | 454 kts | 177° |
| 2026-05-04 18:16 | 9.32333 | -76.53333 | 36891 ft | 454 kts | 177° |
| 2026-05-04 18:16 | 9.26002 | -76.52954 | 36894 ft | 454 kts | 177° |
| 2026-05-04 18:17 | 9.16554 | -76.52388 | 36890 ft | 455 kts | 177° |
| 2026-05-04 18:18 | 9.07078 | -76.51821 | 36899 ft | 455 kts | 177° |
| 2026-05-04 18:18 | 9.00722 | -76.51440 | 36895 ft | 455 kts | 177° |
| 2026-05-04 18:19 | 8.91271 | -76.50875 | 36893 ft | 455 kts | 177° |
| 2026-05-04 18:19 | 8.84940 | -76.50497 | 36897 ft | 454 kts | 176° |
| 2026-05-04 18:20 | 8.78614 | -76.50119 | 36891 ft | 454 kts | 176° |
| 2026-05-04 18:20 | 8.72335 | -76.49744 | 36894 ft | 454 kts | 176° |
| 2026-05-04 18:21 | 8.66015 | -76.49366 | 36897 ft | 453 kts | 176° |
| 2026-05-04 18:21 | 8.59747 | -76.48992 | 36897 ft | 453 kts | 176° |
| 2026-05-04 18:22 | 8.53467 | -76.48617 | 36896 ft | 453 kts | 176° |
| 2026-05-04 18:22 | 8.47163 | -76.48241 | 36895 ft | 453 kts | 176° |
| 2026-05-04 18:23 | 8.40865 | -76.47865 | 36896 ft | 453 kts | 176° |
| 2026-05-04 18:23 | 8.34555 | -76.47489 | 36901 ft | 453 kts | 176° |
| 2026-05-04 18:24 | 8.28292 | -76.47116 | 36900 ft | 453 kts | 176° |
| 2026-05-04 18:24 | 8.21986 | -76.46740 | 36901 ft | 454 kts | 176° |
| 2026-05-04 18:25 | 8.16738 | -76.46428 | 36901 ft | 454 kts | 176° |
| 2026-05-04 18:25 | 8.09393 | -76.45993 | 36905 ft | 454 kts | 176° |
| 2026-05-04 18:26 | 8.04106 | -76.45679 | 36907 ft | 454 kts | 176° |
| 2026-05-04 18:26 | 7.97825 | -76.45306 | 36915 ft | 454 kts | 176° |
| 2026-05-04 18:27 | 7.91500 | -76.44931 | 36921 ft | 454 kts | 176° |
| 2026-05-04 18:27 | 7.85215 | -76.44559 | 36918 ft | 454 kts | 176° |
| 2026-05-04 18:28 | 7.78886 | -76.44183 | 36935 ft | 455 kts | 176° |
| 2026-05-04 18:28 | 7.72553 | -76.43808 | 36922 ft | 454 kts | 176° |
| 2026-05-04 18:29 | 7.66232 | -76.43434 | 36918 ft | 455 kts | 176° |
| 2026-05-04 18:29 | 7.59952 | -76.43062 | 36931 ft | 454 kts | 176° |
| 2026-05-04 18:30 | 7.50465 | -76.42500 | 36934 ft | 454 kts | 176° |
| 2026-05-04 18:31 | 7.44193 | -76.42129 | 36947 ft | 454 kts | 176° |
| 2026-05-04 18:31 | 7.37884 | -76.41756 | 36953 ft | 453 kts | 176° |
| 2026-05-04 18:32 | 7.31618 | -76.41385 | 36961 ft | 453 kts | 176° |
| 2026-05-04 18:32 | 7.25306 | -76.41012 | 36969 ft | 453 kts | 176° |
| 2026-05-04 18:33 | 7.19004 | -76.40639 | 36979 ft | 453 kts | 176° |
| 2026-05-04 18:33 | 7.12705 | -76.40267 | 36985 ft | 453 kts | 176° |
| 2026-05-04 18:34 | 7.06384 | -76.39893 | 37000 ft | 454 kts | 176° |
| 2026-05-04 18:34 | 7.00108 | -76.39523 | 37003 ft | 455 kts | 176° |
| 2026-05-04 18:35 | 6.93764 | -76.39148 | 37005 ft | 455 kts | 176° |
| 2026-05-04 18:35 | 6.87466 | -76.38776 | 37020 ft | 455 kts | 176° |
| 2026-05-04 18:36 | 6.81143 | -76.38404 | 37030 ft | 456 kts | 176° |
| 2026-05-04 18:36 | 6.74826 | -76.38031 | 37026 ft | 456 kts | 176° |
| 2026-05-04 18:37 | 6.68468 | -76.37655 | 37037 ft | 457 kts | 176° |
| 2026-05-04 18:37 | 6.62102 | -76.37280 | 37035 ft | 457 kts | 176° |
| 2026-05-04 18:38 | 6.55770 | -76.36907 | 37040 ft | 457 kts | 176° |
| 2026-05-04 18:38 | 6.49409 | -76.36532 | 37041 ft | 457 kts | 176° |
| 2026-05-04 18:39 | 6.43082 | -76.36159 | 37043 ft | 457 kts | 176° |
| 2026-05-04 18:39 | 6.36727 | -76.35785 | 37045 ft | 457 kts | 176° |
| 2026-05-04 18:40 | 6.30406 | -76.35413 | 37048 ft | 457 kts | 176° |
| 2026-05-04 18:40 | 6.24039 | -76.35038 | 37056 ft | 457 kts | 176° |
| 2026-05-04 18:41 | 6.17673 | -76.34663 | 37055 ft | 458 kts | 175° |
| 2026-05-04 18:41 | 6.11342 | -76.34290 | 37061 ft | 458 kts | 175° |
| 2026-05-04 18:42 | 6.04955 | -76.33914 | 37057 ft | 459 kts | 175° |
| 2026-05-04 18:42 | 5.98561 | -76.33539 | 37059 ft | 459 kts | 175° |
| 2026-05-04 18:43 | 5.92194 | -76.33164 | 37051 ft | 460 kts | 175° |
| 2026-05-04 18:43 | 5.85789 | -76.32787 | 37058 ft | 461 kts | 175° |
| 2026-05-04 18:44 | 5.79369 | -76.32410 | 37043 ft | 461 kts | 175° |
| 2026-05-04 18:44 | 5.72981 | -76.32034 | 37036 ft | 462 kts | 175° |
| 2026-05-04 18:45 | 5.66552 | -76.31657 | 37033 ft | 463 kts | 175° |
| 2026-05-04 18:45 | 5.60138 | -76.31280 | 37045 ft | 463 kts | 175° |
| 2026-05-04 18:46 | 5.53691 | -76.30901 | 37064 ft | 463 kts | 175° |
| 2026-05-04 18:46 | 5.47293 | -76.30526 | 37063 ft | 463 kts | 175° |
| 2026-05-04 18:47 | 5.40835 | -76.30146 | 37060 ft | 463 kts | 175° |
| 2026-05-04 18:47 | 5.34419 | -76.29770 | 37065 ft | 463 kts | 175° |
| 2026-05-04 18:48 | 5.28012 | -76.29394 | 37072 ft | 462 kts | 175° |
| 2026-05-04 18:48 | 5.21572 | -76.29016 | 37076 ft | 462 kts | 175° |
| 2026-05-04 18:49 | 5.15164 | -76.28634 | 37077 ft | 462 kts | 175° |
| 2026-05-04 18:49 | 5.08766 | -76.28241 | 37078 ft | 462 kts | 175° |
| 2026-05-04 18:50 | 5.02308 | -76.27843 | 36459 ft | 467 kts | 175° |
| 2026-05-04 18:50 | 4.99064 | -76.27645 | 35867 ft | 466 kts | 175° |
| 2026-05-04 18:50 | 4.95832 | -76.27448 | 35238 ft | 466 kts | 175° |
| 2026-05-04 18:50 | 4.92581 | -76.27249 | 34565 ft | 468 kts | 175° |
| 2026-05-04 18:51 | 4.89365 | -76.27053 | 33846 ft | 470 kts | 175° |
| 2026-05-04 18:51 | 4.86089 | -76.26853 | 33074 ft | 472 kts | 175° |
| 2026-05-04 18:51 | 4.82811 | -76.26653 | 32529 ft | 468 kts | 175° |
| 2026-05-04 18:51 | 4.79576 | -76.26456 | 32011 ft | 464 kts | 175° |
| 2026-05-04 18:52 | 4.76359 | -76.26260 | 31523 ft | 459 kts | 175° |
| 2026-05-04 18:52 | 4.73205 | -76.26068 | 31031 ft | 456 kts | 175° |
| 2026-05-04 18:52 | 4.70035 | -76.25874 | 30531 ft | 453 kts | 175° |
| 2026-05-04 18:52 | 4.66903 | -76.25683 | 30017 ft | 450 kts | 175° |
| 2026-05-04 18:53 | 4.63777 | -76.25493 | 29460 ft | 447 kts | 175° |
| 2026-05-04 18:53 | 4.60721 | -76.25306 | 28938 ft | 443 kts | 175° |
| 2026-05-04 18:53 | 4.57653 | -76.25118 | 28422 ft | 439 kts | 175° |
| 2026-05-04 18:53 | 4.54603 | -76.24932 | 27927 ft | 436 kts | 175° |
| 2026-05-04 18:54 | 4.51582 | -76.24748 | 27430 ft | 433 kts | 175° |
| 2026-05-04 18:54 | 4.48578 | -76.24569 | 26977 ft | 429 kts | 175° |
| 2026-05-04 18:54 | 4.45603 | -76.24396 | 26513 ft | 426 kts | 175° |
| 2026-05-04 18:54 | 4.42691 | -76.24230 | 26046 ft | 423 kts | 175° |
| 2026-05-04 18:55 | 4.39756 | -76.24062 | 25561 ft | 421 kts | 175° |
| 2026-05-04 18:55 | 4.33889 | -76.23725 | 24587 ft | 418 kts | 175° |
| 2026-05-04 18:55 | 4.31026 | -76.23560 | 24112 ft | 417 kts | 175° |
| 2026-05-04 18:56 | 4.28116 | -76.23392 | 23615 ft | 417 kts | 174° |
| 2026-05-04 18:56 | 4.25221 | -76.23225 | 23053 ft | 415 kts | 175° |
| 2026-05-04 18:56 | 4.22348 | -76.23059 | 22562 ft | 412 kts | 175° |
| 2026-05-04 18:56 | 4.19494 | -76.22894 | 22075 ft | 409 kts | 175° |
| 2026-05-04 18:57 | 4.16654 | -76.22731 | 21598 ft | 406 kts | 175° |
| 2026-05-04 18:57 | 4.13866 | -76.22570 | 21132 ft | 404 kts | 175° |
| 2026-05-04 18:57 | 4.11068 | -76.22408 | 20670 ft | 401 kts | 175° |
| 2026-05-04 18:57 | 4.08281 | -76.22296 | 20197 ft | 400 kts | 179° |
| 2026-05-04 18:58 | 4.05498 | -76.22455 | 19704 ft | 398 kts | 183° |
| 2026-05-04 18:58 | 4.02753 | -76.22753 | 19264 ft | 393 kts | 185° |
| 2026-05-04 18:58 | 4.00073 | -76.23077 | 18750 ft | 390 kts | 185° |
| 2026-05-04 18:58 | 3.97416 | -76.23390 | 18351 ft | 379 kts | 184° |
| 2026-05-04 18:59 | 3.94801 | -76.23680 | 17812 ft | 375 kts | 184° |
| 2026-05-04 18:59 | 3.92205 | -76.23951 | 17321 ft | 375 kts | 184° |
| 2026-05-04 18:59 | 3.89623 | -76.24211 | 16905 ft | 371 kts | 184° |
| 2026-05-04 18:59 | 3.87084 | -76.24462 | 16461 ft | 368 kts | 183° |
| 2026-05-04 19:00 | 3.84539 | -76.24710 | 16020 ft | 366 kts | 183° |
| 2026-05-04 19:00 | 3.82014 | -76.24957 | 15600 ft | 363 kts | 183° |
| 2026-05-04 19:00 | 3.79498 | -76.25202 | 15165 ft | 361 kts | 183° |
| 2026-05-04 19:00 | 3.77008 | -76.25445 | 14739 ft | 358 kts | 183° |
| 2026-05-04 19:01 | 3.74530 | -76.25686 | 14304 ft | 356 kts | 183° |
| 2026-05-04 19:01 | 3.72095 | -76.25924 | 13872 ft | 354 kts | 183° |
| 2026-05-04 19:01 | 3.69644 | -76.26163 | 13404 ft | 352 kts | 183° |
| 2026-05-04 19:01 | 3.67210 | -76.26401 | 12958 ft | 350 kts | 184° |
| 2026-05-04 19:02 | 3.64796 | -76.26678 | 12550 ft | 346 kts | 185° |
| 2026-05-04 19:02 | 3.62412 | -76.26980 | 12152 ft | 343 kts | 185° |
| 2026-05-04 19:02 | 3.60055 | -76.27283 | 11762 ft | 340 kts | 186° |
| 2026-05-04 19:02 | 3.57763 | -76.27576 | 11365 ft | 330 kts | 186° |
| 2026-05-04 19:03 | 3.55516 | -76.27859 | 10997 ft | 319 kts | 186° |
| 2026-05-04 19:03 | 3.53345 | -76.28130 | 10639 ft | 309 kts | 186° |
| 2026-05-04 19:03 | 3.51238 | -76.28392 | 10289 ft | 301 kts | 186° |
| 2026-05-04 19:03 | 3.49183 | -76.28661 | 9953 ft | 295 kts | 188° |
| 2026-05-04 19:04 | 3.47163 | -76.29071 | 9580 ft | 297 kts | 192° |
| 2026-05-04 19:04 | 3.45147 | -76.29542 | 9283 ft | 299 kts | 193° |
| 2026-05-04 19:04 | 3.43128 | -76.30009 | 8879 ft | 302 kts | 192° |
| 2026-05-04 19:04 | 3.41082 | -76.30472 | 8530 ft | 300 kts | 192° |
| 2026-05-04 19:05 | 3.39045 | -76.30925 | 8201 ft | 297 kts | 193° |
| 2026-05-04 19:05 | 3.37049 | -76.31411 | 7847 ft | 292 kts | 201° |
| 2026-05-04 19:05 | 3.35401 | -76.32488 | 7667 ft | 282 kts | 228° |
| 2026-05-04 19:05 | 3.34402 | -76.34118 | 7439 ft | 271 kts | 253° |
| 2026-05-04 19:06 | 3.34169 | -76.35900 | 7342 ft | 248 kts | 273° |
| 2026-05-04 19:06 | 3.34484 | -76.37525 | 7202 ft | 228 kts | 293° |
| 2026-05-04 19:06 | 3.35419 | -76.38705 | 7030 ft | 211 kts | 326° |
| 2026-05-04 19:06 | 3.36753 | -76.39250 | 6562 ft | 213 kts | 349° |
| 2026-05-04 19:07 | 3.38249 | -76.39403 | 5973 ft | 218 kts | 355° |
| 2026-05-04 19:07 | 3.39782 | -76.39498 | 5381 ft | 222 kts | 356° |
| 2026-05-04 19:07 | 3.41318 | -76.39596 | 4971 ft | 216 kts | 355° |
| 2026-05-04 19:07 | 3.42762 | -76.39692 | 4830 ft | 200 kts | 355° |
| 2026-05-04 19:08 | 3.44080 | -76.39781 | 4759 ft | 185 kts | 358° |
| 2026-05-04 19:08 | 3.45388 | -76.39707 | 4636 ft | 190 kts | 6° |
| 2026-05-04 19:08 | 3.46664 | -76.39509 | 4409 ft | 181 kts | 10° |
| 2026-05-04 19:08 | 3.47857 | -76.39297 | 4210 ft | 164 kts | 10° |
| 2026-05-04 19:09 | 3.48935 | -76.39108 | 3986 ft | 158 kts | 11° |
| 2026-05-04 19:09 | 3.50018 | -76.38919 | 3761 ft | 157 kts | 11° |
| 2026-05-04 19:09 | 3.51071 | -76.38737 | 3568 ft | 151 kts | 12° |
| 2026-05-04 19:09 | 3.52110 | -76.38552 | 3377 ft | 153 kts | 10° |
| 2026-05-04 19:10 | 3.53158 | -76.38370 | 3184 ft | 153 kts | 11° |
| 2026-05-04 19:10 | 3.54124 | -76.38203 | 3167 ft | 124 kts | 10° |
| 2026-05-04 19:10 | 3.54770 | -76.38092 | 3164 ft | 71 kts | 10° |
| 2026-05-04 19:10 | 3.55045 | -76.38046 | 3168 ft | 20 kts | 0° |
| 2026-05-04 19:11 | 3.55105 | -76.38132 | 3168 ft | 16 kts | 279° |
| 2026-05-04 19:11 | 3.55078 | -76.38205 | 3168 ft | 12 kts | 203° |
| 2026-05-04 19:11 | 3.54999 | -76.38219 | 3169 ft | 11 kts | 189° |
| 2026-05-04 19:11 | 3.54947 | -76.38227 | 3170 ft | 11 kts | 187° |
| 2026-05-04 19:12 | 3.54848 | -76.38242 | 3167 ft | 11 kts | 188° |
| 2026-05-04 19:12 | 3.54728 | -76.38262 | 3166 ft | 10 kts | 189° |
| 2026-05-04 19:12 | 3.54659 | -76.38273 | 3166 ft | 10 kts | 189° |
| 2026-05-04 19:13 | 3.54570 | -76.38288 | 3166 ft | 10 kts | 189° |
| 2026-05-04 19:13 | 3.54526 | -76.38296 | 3166 ft | 9 kts | 190° |
| 2026-05-04 19:13 | 3.54438 | -76.38312 | 3166 ft | 20 kts | 190° |
| 2026-05-04 19:13 | 3.54276 | -76.38342 | 3165 ft | 23 kts | 190° |
| 2026-05-04 19:14 | 3.54122 | -76.38374 | 3165 ft | 22 kts | 197° |
| 2026-05-04 19:14 | 3.53995 | -76.38459 | 3164 ft | 22 kts | 220° |
| 2026-05-04 19:14 | 3.53894 | -76.38542 | 3164 ft | 15 kts | 219° |
| 2026-05-04 19:14 | 3.53838 | -76.38598 | 3163 ft | 10 kts | 249° |
| 2026-05-04 19:15 | 3.53829 | -76.38664 | 3163 ft | 8 kts | 276° |
| 2026-05-04 19:15 | 3.53831 | -76.38685 | 3163 ft | 2 kts | 280° |
| 2026-05-04 19:15 | 3.53832 | -76.38701 | 3163 ft | 2 kts | 272° |
| 2026-05-04 19:15 | 3.53832 | -76.38708 | 3163 ft | 2 kts | 272° |
| 2026-05-04 19:16 | 3.53832 | -76.38710 | 3163 ft | 0 kts | 272° |